sensor_id;sensor_type;location;lat;lon;timestamp;P1;durP1;ratioP1;P2;durP2;ratioP2
9518;SDS011;4797;50.220;8.782;2022-07-18T00:01:56;2.47;;;1.30;;
9518;SDS011;4797;50.220;8.782;2022-07-18T00:04:36;3.47;;;1.47;;
9518;SDS011;4797;50.220;8.782;2022-07-18T00:07:30;3.63;;;2.10;;
9518;SDS011;4797;50.220;8.782;2022-07-18T00:10:04;1.87;;;1.40;;
9518;SDS011;4797;50.220;8.782;2022-07-18T00:12:36;3.83;;;1.50;;
9518;SDS011;4797;50.220;8.782;2022-07-18T00:15:08;9.70;;;1.70;;
9518;SDS011;4797;50.220;8.782;2022-07-18T00:17:37;1.63;;;1.33;;
9518;SDS011;4797;50.220;8.782;2022-07-18T00:20:07;1.40;;;1.30;;
9518;SDS011;4797;50.220;8.782;2022-07-18T00:22:35;2.80;;;1.70;;
9518;SDS011;4797;50.220;8.782;2022-07-18T00:25:06;3.13;;;1.50;;
9518;SDS011;4797;50.220;8.782;2022-07-18T00:27:34;5.93;;;1.30;;
9518;SDS011;4797;50.220;8.782;2022-07-18T00:30:02;2.00;;;1.80;;
9518;SDS011;4797;50.220;8.782;2022-07-18T00:32:31;1.83;;;1.33;;
9518;SDS011;4797;50.220;8.782;2022-07-18T00:35:00;1.70;;;1.60;;
9518;SDS011;4797;50.220;8.782;2022-07-18T00:37:28;3.10;;;1.80;;
9518;SDS011;4797;50.220;8.782;2022-07-18T00:39:57;2.47;;;1.60;;
9518;SDS011;4797;50.220;8.782;2022-07-18T00:42:26;1.60;;;1.27;;
9518;SDS011;4797;50.220;8.782;2022-07-18T00:44:55;6.73;;;1.50;;
9518;SDS011;4797;50.220;8.782;2022-07-18T00:47:23;2.27;;;1.47;;
9518;SDS011;4797;50.220;8.782;2022-07-18T00:49:52;1.60;;;1.43;;
9518;SDS011;4797;50.220;8.782;2022-07-18T00:52:20;9.37;;;2.20;;
9518;SDS011;4797;50.220;8.782;2022-07-18T00:54:49;2.30;;;1.37;;
9518;SDS011;4797;50.220;8.782;2022-07-18T00:57:17;3.33;;;1.20;;
9518;SDS011;4797;50.220;8.782;2022-07-18T00:59:47;2.83;;;1.20;;
9518;SDS011;4797;50.220;8.782;2022-07-18T01:02:33;1.53;;;1.40;;
9518;SDS011;4797;50.220;8.782;2022-07-18T01:05:02;1.87;;;1.60;;
9518;SDS011;4797;50.220;8.782;2022-07-18T01:07:30;3.43;;;2.07;;
9518;SDS011;4797;50.220;8.782;2022-07-18T01:09:58;2.40;;;1.30;;
9518;SDS011;4797;50.220;8.782;2022-07-18T01:12:27;2.17;;;1.43;;
9518;SDS011;4797;50.220;8.782;2022-07-18T01:14:57;1.97;;;1.30;;
9518;SDS011;4797;50.220;8.782;2022-07-18T01:17:25;3.30;;;1.23;;
9518;SDS011;4797;50.220;8.782;2022-07-18T01:20:00;2.80;;;1.50;;
9518;SDS011;4797;50.220;8.782;2022-07-18T01:22:30;1.97;;;1.60;;
9518;SDS011;4797;50.220;8.782;2022-07-18T01:24:58;1.30;;;1.17;;
9518;SDS011;4797;50.220;8.782;2022-07-18T01:27:27;3.17;;;1.80;;
9518;SDS011;4797;50.220;8.782;2022-07-18T01:29:55;2.00;;;1.17;;
9518;SDS011;4797;50.220;8.782;2022-07-18T01:32:23;2.93;;;1.60;;
9518;SDS011;4797;50.220;8.782;2022-07-18T01:34:52;3.53;;;1.37;;
9518;SDS011;4797;50.220;8.782;2022-07-18T01:37:20;1.90;;;1.43;;
9518;SDS011;4797;50.220;8.782;2022-07-18T01:39:50;1.70;;;1.40;;
9518;SDS011;4797;50.220;8.782;2022-07-18T01:42:18;3.00;;;1.43;;
9518;SDS011;4797;50.220;8.782;2022-07-18T01:44:47;1.40;;;1.30;;
9518;SDS011;4797;50.220;8.782;2022-07-18T01:47:15;6.20;;;1.60;;
9518;SDS011;4797;50.220;8.782;2022-07-18T01:49:44;1.87;;;1.43;;
9518;SDS011;4797;50.220;8.782;2022-07-18T01:52:12;2.30;;;1.37;;
9518;SDS011;4797;50.220;8.782;2022-07-18T01:54:41;2.97;;;1.47;;
9518;SDS011;4797;50.220;8.782;2022-07-18T01:57:11;5.07;;;1.47;;
9518;SDS011;4797;50.220;8.782;2022-07-18T01:59:39;4.17;;;1.73;;
9518;SDS011;4797;50.220;8.782;2022-07-18T02:02:08;2.23;;;1.10;;
9518;SDS011;4797;50.220;8.782;2022-07-18T02:04:36;2.60;;;1.57;;
9518;SDS011;4797;50.220;8.782;2022-07-18T02:07:22;2.17;;;1.40;;
9518;SDS011;4797;50.220;8.782;2022-07-18T02:09:50;2.17;;;1.60;;
9518;SDS011;4797;50.220;8.782;2022-07-18T02:12:20;3.93;;;1.80;;
9518;SDS011;4797;50.220;8.782;2022-07-18T02:14:49;3.13;;;1.40;;
9518;SDS011;4797;50.220;8.782;2022-07-18T02:17:17;4.97;;;1.60;;
9518;SDS011;4797;50.220;8.782;2022-07-18T02:19:46;2.20;;;1.40;;
9518;SDS011;4797;50.220;8.782;2022-07-18T02:22:15;8.93;;;1.80;;
9518;SDS011;4797;50.220;8.782;2022-07-18T02:24:43;2.80;;;1.67;;
9518;SDS011;4797;50.220;8.782;2022-07-18T02:27:12;8.90;;;1.67;;
9518;SDS011;4797;50.220;8.782;2022-07-18T02:29:41;1.80;;;1.13;;
9518;SDS011;4797;50.220;8.782;2022-07-18T02:32:10;3.30;;;1.53;;
9518;SDS011;4797;50.220;8.782;2022-07-18T02:34:38;1.80;;;1.47;;
9518;SDS011;4797;50.220;8.782;2022-07-18T02:37:06;1.30;;;1.20;;
9518;SDS011;4797;50.220;8.782;2022-07-18T02:39:35;2.07;;;1.40;;
9518;SDS011;4797;50.220;8.782;2022-07-18T02:42:03;1.40;;;1.30;;
9518;SDS011;4797;50.220;8.782;2022-07-18T02:44:32;1.70;;;1.30;;
9518;SDS011;4797;50.220;8.782;2022-07-18T02:47:02;2.50;;;1.53;;
9518;SDS011;4797;50.220;8.782;2022-07-18T02:49:30;1.53;;;1.20;;
9518;SDS011;4797;50.220;8.782;2022-07-18T02:52:00;1.60;;;1.20;;
9518;SDS011;4797;50.220;8.782;2022-07-18T02:54:29;5.60;;;1.47;;
9518;SDS011;4797;50.220;8.782;2022-07-18T02:56:58;5.70;;;1.77;;
9518;SDS011;4797;50.220;8.782;2022-07-18T02:59:26;3.57;;;1.60;;
9518;SDS011;4797;50.220;8.782;2022-07-18T03:01:55;2.43;;;2.00;;
9518;SDS011;4797;50.220;8.782;2022-07-18T03:04:25;4.57;;;2.27;;
9518;SDS011;4797;50.220;8.782;2022-07-18T03:06:54;2.43;;;2.23;;
9518;SDS011;4797;50.220;8.782;2022-07-18T03:09:22;2.33;;;1.90;;
9518;SDS011;4797;50.220;8.782;2022-07-18T03:11:53;6.10;;;1.83;;
9518;SDS011;4797;50.220;8.782;2022-07-18T03:14:21;1.80;;;1.33;;
9518;SDS011;4797;50.220;8.782;2022-07-18T03:16:50;1.70;;;1.60;;
9518;SDS011;4797;50.220;8.782;2022-07-18T03:19:18;2.70;;;1.87;;
9518;SDS011;4797;50.220;8.782;2022-07-18T03:21:48;4.83;;;1.57;;
9518;SDS011;4797;50.220;8.782;2022-07-18T03:24:16;5.23;;;1.90;;
9518;SDS011;4797;50.220;8.782;2022-07-18T03:26:44;3.73;;;1.47;;
9518;SDS011;4797;50.220;8.782;2022-07-18T03:29:13;1.90;;;1.40;;
9518;SDS011;4797;50.220;8.782;2022-07-18T03:31:41;2.47;;;1.37;;
9518;SDS011;4797;50.220;8.782;2022-07-18T03:34:09;2.43;;;1.50;;
9518;SDS011;4797;50.220;8.782;2022-07-18T03:36:38;1.93;;;1.60;;
9518;SDS011;4797;50.220;8.782;2022-07-18T03:39:08;1.90;;;1.57;;
9518;SDS011;4797;50.220;8.782;2022-07-18T03:41:37;2.07;;;1.40;;
9518;SDS011;4797;50.220;8.782;2022-07-18T03:44:06;1.40;;;1.30;;
9518;SDS011;4797;50.220;8.782;2022-07-18T03:46:34;1.40;;;1.30;;
9518;SDS011;4797;50.220;8.782;2022-07-18T03:49:03;2.60;;;1.97;;
9518;SDS011;4797;50.220;8.782;2022-07-18T03:51:32;3.03;;;2.00;;
9518;SDS011;4797;50.220;8.782;2022-07-18T03:54:00;4.53;;;2.13;;
9518;SDS011;4797;50.220;8.782;2022-07-18T03:56:30;2.90;;;2.03;;
9518;SDS011;4797;50.220;8.782;2022-07-18T03:58:59;3.87;;;2.33;;
9518;SDS011;4797;50.220;8.782;2022-07-18T04:01:27;6.63;;;1.63;;
9518;SDS011;4797;50.220;8.782;2022-07-18T04:03:56;12.50;;;2.93;;
9518;SDS011;4797;50.220;8.782;2022-07-18T04:06:24;5.07;;;2.30;;
9518;SDS011;4797;50.220;8.782;2022-07-18T04:08:53;2.20;;;1.93;;
9518;SDS011;4797;50.220;8.782;2022-07-18T04:11:21;7.47;;;2.20;;
9518;SDS011;4797;50.220;8.782;2022-07-18T04:13:52;8.83;;;2.23;;
9518;SDS011;4797;50.220;8.782;2022-07-18T04:16:21;2.73;;;1.77;;
9518;SDS011;4797;50.220;8.782;2022-07-18T04:18:49;6.03;;;1.70;;
9518;SDS011;4797;50.220;8.782;2022-07-18T04:21:18;6.13;;;2.27;;
9518;SDS011;4797;50.220;8.782;2022-07-18T04:23:46;3.07;;;2.13;;
9518;SDS011;4797;50.220;8.782;2022-07-18T04:26:14;3.57;;;1.63;;
9518;SDS011;4797;50.220;8.782;2022-07-18T04:28:43;3.07;;;1.90;;
9518;SDS011;4797;50.220;8.782;2022-07-18T04:31:12;2.20;;;1.57;;
9518;SDS011;4797;50.220;8.782;2022-07-18T04:33:41;2.97;;;1.67;;
9518;SDS011;4797;50.220;8.782;2022-07-18T04:36:09;9.73;;;1.90;;
9518;SDS011;4797;50.220;8.782;2022-07-18T04:38:37;3.13;;;1.83;;
9518;SDS011;4797;50.220;8.782;2022-07-18T04:41:06;1.70;;;1.60;;
9518;SDS011;4797;50.220;8.782;2022-07-18T04:43:35;2.13;;;1.80;;
9518;SDS011;4797;50.220;8.782;2022-07-18T04:46:03;1.57;;;1.40;;
9518;SDS011;4797;50.220;8.782;2022-07-18T04:48:33;2.30;;;1.80;;
9518;SDS011;4797;50.220;8.782;2022-07-18T04:51:01;2.87;;;1.80;;
9518;SDS011;4797;50.220;8.782;2022-07-18T04:53:29;5.63;;;1.77;;
9518;SDS011;4797;50.220;8.782;2022-07-18T04:55:58;5.73;;;1.60;;
9518;SDS011;4797;50.220;8.782;2022-07-18T04:58:26;3.93;;;1.70;;
9518;SDS011;4797;50.220;8.782;2022-07-18T05:00:55;2.90;;;1.93;;
9518;SDS011;4797;50.220;8.782;2022-07-18T05:03:23;2.90;;;1.60;;
9518;SDS011;4797;50.220;8.782;2022-07-18T05:05:53;2.57;;;1.43;;
9518;SDS011;4797;50.220;8.782;2022-07-18T05:08:21;7.13;;;1.87;;
9518;SDS011;4797;50.220;8.782;2022-07-18T05:10:49;7.50;;;2.63;;
9518;SDS011;4797;50.220;8.782;2022-07-18T05:13:18;2.40;;;1.33;;
9518;SDS011;4797;50.220;8.782;2022-07-18T05:15:46;1.90;;;1.60;;
9518;SDS011;4797;50.220;8.782;2022-07-18T05:18:15;2.30;;;1.53;;
9518;SDS011;4797;50.220;8.782;2022-07-18T05:20:43;5.70;;;1.50;;
9518;SDS011;4797;50.220;8.782;2022-07-18T05:23:14;7.17;;;1.90;;
9518;SDS011;4797;50.220;8.782;2022-07-18T05:25:43;3.97;;;1.73;;
9518;SDS011;4797;50.220;8.782;2022-07-18T05:28:11;2.77;;;1.73;;
9518;SDS011;4797;50.220;8.782;2022-07-18T05:30:39;1.87;;;1.70;;
9518;SDS011;4797;50.220;8.782;2022-07-18T05:33:07;2.13;;;1.80;;
9518;SDS011;4797;50.220;8.782;2022-07-18T05:35:36;1.60;;;1.50;;
9518;SDS011;4797;50.220;8.782;2022-07-18T05:38:04;2.00;;;1.80;;
9518;SDS011;4797;50.220;8.782;2022-07-18T05:40:34;4.63;;;1.20;;
9518;SDS011;4797;50.220;8.782;2022-07-18T05:43:03;4.17;;;1.90;;
9518;SDS011;4797;50.220;8.782;2022-07-18T05:45:31;2.70;;;1.83;;
9518;SDS011;4797;50.220;8.782;2022-07-18T05:48:00;1.90;;;1.77;;
9518;SDS011;4797;50.220;8.782;2022-07-18T05:50:28;1.90;;;1.50;;
9518;SDS011;4797;50.220;8.782;2022-07-18T05:52:56;3.83;;;1.67;;
9518;SDS011;4797;50.220;8.782;2022-07-18T05:55:25;1.50;;;1.40;;
9518;SDS011;4797;50.220;8.782;2022-07-18T05:57:54;3.70;;;1.50;;
9518;SDS011;4797;50.220;8.782;2022-07-18T06:00:23;4.40;;;1.93;;
9518;SDS011;4797;50.220;8.782;2022-07-18T06:02:51;3.67;;;1.70;;
9518;SDS011;4797;50.220;8.782;2022-07-18T06:05:19;2.90;;;1.60;;
9518;SDS011;4797;50.220;8.782;2022-07-18T06:07:51;3.73;;;1.73;;
9518;SDS011;4797;50.220;8.782;2022-07-18T06:10:19;3.07;;;1.90;;
9518;SDS011;4797;50.220;8.782;2022-07-18T06:12:47;2.70;;;1.73;;
9518;SDS011;4797;50.220;8.782;2022-07-18T06:15:18;3.63;;;1.70;;
9518;SDS011;4797;50.220;8.782;2022-07-18T06:17:46;2.73;;;1.83;;
9518;SDS011;4797;50.220;8.782;2022-07-18T06:20:15;1.80;;;1.70;;
9518;SDS011;4797;50.220;8.782;2022-07-18T06:22:43;3.53;;;1.53;;
9518;SDS011;4797;50.220;8.782;2022-07-18T06:25:12;4.93;;;1.50;;
9518;SDS011;4797;50.220;8.782;2022-07-18T06:27:40;13.83;;;3.23;;
9518;SDS011;4797;50.220;8.782;2022-07-18T06:30:09;6.20;;;1.70;;
9518;SDS011;4797;50.220;8.782;2022-07-18T06:32:38;3.70;;;2.20;;
9518;SDS011;4797;50.220;8.782;2022-07-18T06:35:07;2.63;;;1.77;;
9518;SDS011;4797;50.220;8.782;2022-07-18T06:37:36;2.23;;;1.73;;
9518;SDS011;4797;50.220;8.782;2022-07-18T06:40:05;4.73;;;1.73;;
9518;SDS011;4797;50.220;8.782;2022-07-18T06:42:33;5.00;;;1.90;;
9518;SDS011;4797;50.220;8.782;2022-07-18T06:45:02;4.00;;;2.27;;
9518;SDS011;4797;50.220;8.782;2022-07-18T06:47:39;2.37;;;2.20;;
9518;SDS011;4797;50.220;8.782;2022-07-18T06:50:07;2.10;;;1.87;;
9518;SDS011;4797;50.220;8.782;2022-07-18T06:52:36;2.30;;;2.17;;
9518;SDS011;4797;50.220;8.782;2022-07-18T06:55:05;3.47;;;3.13;;
9518;SDS011;4797;50.220;8.782;2022-07-18T06:57:34;4.30;;;3.77;;
9518;SDS011;4797;50.220;8.782;2022-07-18T07:00:03;4.80;;;4.00;;
9518;SDS011;4797;50.220;8.782;2022-07-18T07:02:32;4.43;;;3.80;;
9518;SDS011;4797;50.220;8.782;2022-07-18T07:05:01;8.00;;;4.07;;
9518;SDS011;4797;50.220;8.782;2022-07-18T07:07:30;6.40;;;4.53;;
9518;SDS011;4797;50.220;8.782;2022-07-18T07:09:58;4.50;;;3.87;;
9518;SDS011;4797;50.220;8.782;2022-07-18T07:12:28;5.80;;;3.90;;
9518;SDS011;4797;50.220;8.782;2022-07-18T07:14:57;7.63;;;3.77;;
9518;SDS011;4797;50.220;8.782;2022-07-18T07:17:25;9.37;;;4.33;;
9518;SDS011;4797;50.220;8.782;2022-07-18T07:19:56;5.53;;;4.13;;
9518;SDS011;4797;50.220;8.782;2022-07-18T07:22:25;6.43;;;4.03;;
9518;SDS011;4797;50.220;8.782;2022-07-18T07:24:54;4.57;;;3.83;;
9518;SDS011;4797;50.220;8.782;2022-07-18T07:27:22;8.83;;;4.30;;
9518;SDS011;4797;50.220;8.782;2022-07-18T07:29:50;10.87;;;5.27;;
9518;SDS011;4797;50.220;8.782;2022-07-18T07:32:18;8.23;;;5.03;;
9518;SDS011;4797;50.220;8.782;2022-07-18T07:34:47;7.70;;;5.43;;
9518;SDS011;4797;50.220;8.782;2022-07-18T07:37:15;8.00;;;5.30;;
9518;SDS011;4797;50.220;8.782;2022-07-18T07:39:45;9.33;;;5.93;;
9518;SDS011;4797;50.220;8.782;2022-07-18T07:42:16;7.53;;;5.23;;
9518;SDS011;4797;50.220;8.782;2022-07-18T07:44:44;7.47;;;5.20;;
9518;SDS011;4797;50.220;8.782;2022-07-18T07:47:12;8.60;;;5.53;;
9518;SDS011;4797;50.220;8.782;2022-07-18T07:49:41;7.37;;;4.87;;
9518;SDS011;4797;50.220;8.782;2022-07-18T07:52:09;6.73;;;4.77;;
9518;SDS011;4797;50.220;8.782;2022-07-18T07:54:39;7.53;;;5.00;;
9518;SDS011;4797;50.220;8.782;2022-07-18T07:57:11;10.03;;;5.17;;
9518;SDS011;4797;50.220;8.782;2022-07-18T07:59:41;11.07;;;5.47;;
9518;SDS011;4797;50.220;8.782;2022-07-18T08:02:09;8.37;;;5.63;;
9518;SDS011;4797;50.220;8.782;2022-07-18T08:04:37;11.07;;;6.07;;
9518;SDS011;4797;50.220;8.782;2022-07-18T08:07:06;9.17;;;5.93;;
9518;SDS011;4797;50.220;8.782;2022-07-18T08:09:34;8.83;;;5.57;;
9518;SDS011;4797;50.220;8.782;2022-07-18T08:12:03;8.73;;;5.53;;
9518;SDS011;4797;50.220;8.782;2022-07-18T08:14:33;8.97;;;5.53;;
9518;SDS011;4797;50.220;8.782;2022-07-18T08:17:04;8.90;;;5.20;;
9518;SDS011;4797;50.220;8.782;2022-07-18T08:19:33;12.90;;;8.43;;
9518;SDS011;4797;50.220;8.782;2022-07-18T08:22:01;7.67;;;5.33;;
9518;SDS011;4797;50.220;8.782;2022-07-18T08:24:30;8.80;;;5.70;;
9518;SDS011;4797;50.220;8.782;2022-07-18T08:26:58;7.73;;;5.50;;
9518;SDS011;4797;50.220;8.782;2022-07-18T08:29:26;7.30;;;4.97;;
9518;SDS011;4797;50.220;8.782;2022-07-18T08:32:16;7.67;;;4.77;;
9518;SDS011;4797;50.220;8.782;2022-07-18T08:34:46;8.60;;;5.80;;
9518;SDS011;4797;50.220;8.782;2022-07-18T08:37:14;7.13;;;4.70;;
9518;SDS011;4797;50.220;8.782;2022-07-18T08:39:42;7.70;;;5.13;;
9518;SDS011;4797;50.220;8.782;2022-07-18T08:42:11;9.30;;;5.53;;
9518;SDS011;4797;50.220;8.782;2022-07-18T08:44:39;10.53;;;5.80;;
9518;SDS011;4797;50.220;8.782;2022-07-18T08:47:08;13.47;;;6.30;;
9518;SDS011;4797;50.220;8.782;2022-07-18T08:49:38;10.33;;;5.43;;
9518;SDS011;4797;50.220;8.782;2022-07-18T08:52:06;8.23;;;5.33;;
9518;SDS011;4797;50.220;8.782;2022-07-18T08:54:49;9.17;;;5.40;;
9518;SDS011;4797;50.220;8.782;2022-07-18T08:57:25;9.60;;;6.03;;
9518;SDS011;4797;50.220;8.782;2022-07-18T08:59:55;9.07;;;5.37;;
9518;SDS011;4797;50.220;8.782;2022-07-18T09:02:24;9.57;;;5.53;;
9518;SDS011;4797;50.220;8.782;2022-07-18T09:04:54;10.87;;;5.93;;
9518;SDS011;4797;50.220;8.782;2022-07-18T09:07:42;10.67;;;6.43;;
9518;SDS011;4797;50.220;8.782;2022-07-18T09:10:10;8.93;;;5.40;;
9518;SDS011;4797;50.220;8.782;2022-07-18T09:12:39;13.00;;;6.57;;
9518;SDS011;4797;50.220;8.782;2022-07-18T09:15:28;11.53;;;5.13;;
9518;SDS011;4797;50.220;8.782;2022-07-18T09:17:57;10.77;;;6.13;;
9518;SDS011;4797;50.220;8.782;2022-07-18T09:20:57;10.60;;;6.30;;
9518;SDS011;4797;50.220;8.782;2022-07-18T09:23:27;9.87;;;5.90;;
9518;SDS011;4797;50.220;8.782;2022-07-18T09:25:55;13.10;;;6.17;;
9518;SDS011;4797;50.220;8.782;2022-07-18T09:28:23;11.97;;;6.50;;
9518;SDS011;4797;50.220;8.782;2022-07-18T09:30:52;12.60;;;6.57;;
9518;SDS011;4797;50.220;8.782;2022-07-18T09:33:20;10.60;;;6.30;;
9518;SDS011;4797;50.220;8.782;2022-07-18T09:35:49;15.87;;;9.47;;
9518;SDS011;4797;50.220;8.782;2022-07-18T09:38:21;16.03;;;10.20;;
9518;SDS011;4797;50.220;8.782;2022-07-18T09:40:50;11.97;;;5.90;;
9518;SDS011;4797;50.220;8.782;2022-07-18T09:43:19;10.50;;;6.13;;
9518;SDS011;4797;50.220;8.782;2022-07-18T09:45:49;10.43;;;5.90;;
9518;SDS011;4797;50.220;8.782;2022-07-18T09:48:18;10.77;;;6.13;;
9518;SDS011;4797;50.220;8.782;2022-07-18T09:50:49;9.23;;;5.80;;
9518;SDS011;4797;50.220;8.782;2022-07-18T09:53:20;9.67;;;5.67;;
9518;SDS011;4797;50.220;8.782;2022-07-18T09:56:00;8.20;;;5.00;;
9518;SDS011;4797;50.220;8.782;2022-07-18T09:58:30;10.87;;;5.67;;
9518;SDS011;4797;50.220;8.782;2022-07-18T10:00:59;8.67;;;5.27;;
9518;SDS011;4797;50.220;8.782;2022-07-18T10:03:28;6.83;;;4.70;;
9518;SDS011;4797;50.220;8.782;2022-07-18T10:05:57;8.27;;;4.70;;
9518;SDS011;4797;50.220;8.782;2022-07-18T10:08:28;7.87;;;5.13;;
9518;SDS011;4797;50.220;8.782;2022-07-18T10:10:57;7.17;;;4.80;;
9518;SDS011;4797;50.220;8.782;2022-07-18T10:13:27;7.13;;;5.33;;
9518;SDS011;4797;50.220;8.782;2022-07-18T10:15:55;7.80;;;5.23;;
9518;SDS011;4797;50.220;8.782;2022-07-18T10:18:24;8.67;;;5.53;;
9518;SDS011;4797;50.220;8.782;2022-07-18T10:20:55;9.17;;;5.03;;
9518;SDS011;4797;50.220;8.782;2022-07-18T10:23:25;6.90;;;4.90;;
9518;SDS011;4797;50.220;8.782;2022-07-18T10:26:10;8.60;;;5.33;;
9518;SDS011;4797;50.220;8.782;2022-07-18T10:31:34;5.50;;;4.27;;
9518;SDS011;4797;50.220;8.782;2022-07-18T10:34:11;8.13;;;4.67;;
9518;SDS011;4797;50.220;8.782;2022-07-18T10:36:40;10.07;;;5.40;;
9518;SDS011;4797;50.220;8.782;2022-07-18T10:39:10;9.17;;;5.23;;
9518;SDS011;4797;50.220;8.782;2022-07-18T10:44:35;13.30;;;8.63;;
9518;SDS011;4797;50.220;8.782;2022-07-18T10:47:06;8.63;;;5.27;;
9518;SDS011;4797;50.220;8.782;2022-07-18T10:52:55;8.90;;;5.53;;
9518;SDS011;4797;50.220;8.782;2022-07-18T10:55:28;10.33;;;5.73;;
9518;SDS011;4797;50.220;8.782;2022-07-18T10:58:15;14.20;;;8.47;;
9518;SDS011;4797;50.220;8.782;2022-07-18T11:00:45;9.40;;;5.50;;
9518;SDS011;4797;50.220;8.782;2022-07-18T11:03:15;9.77;;;5.73;;
9518;SDS011;4797;50.220;8.782;2022-07-18T11:05:45;14.90;;;9.10;;
9518;SDS011;4797;50.220;8.782;2022-07-18T11:08:17;10.40;;;6.13;;
9518;SDS011;4797;50.220;8.782;2022-07-18T11:13:46;9.20;;;5.90;;
9518;SDS011;4797;50.220;8.782;2022-07-18T11:16:22;9.77;;;6.20;;
9518;SDS011;4797;50.220;8.782;2022-07-18T11:21:39;11.07;;;6.10;;
9518;SDS011;4797;50.220;8.782;2022-07-18T11:24:08;10.27;;;5.93;;
9518;SDS011;4797;50.220;8.782;2022-07-18T11:26:38;15.17;;;9.03;;
9518;SDS011;4797;50.220;8.782;2022-07-18T11:29:07;11.47;;;6.33;;
9518;SDS011;4797;50.220;8.782;2022-07-18T11:31:46;15.50;;;9.13;;
9518;SDS011;4797;50.220;8.782;2022-07-18T11:34:14;11.10;;;6.20;;
9518;SDS011;4797;50.220;8.782;2022-07-18T11:36:44;11.60;;;6.43;;
9518;SDS011;4797;50.220;8.782;2022-07-18T11:39:14;11.97;;;6.57;;
9518;SDS011;4797;50.220;8.782;2022-07-18T11:41:42;10.97;;;6.50;;
9518;SDS011;4797;50.220;8.782;2022-07-18T11:44:17;11.60;;;6.70;;
9518;SDS011;4797;50.220;8.782;2022-07-18T11:46:49;10.93;;;6.60;;
9518;SDS011;4797;50.220;8.782;2022-07-18T11:49:28;10.90;;;6.57;;
9518;SDS011;4797;50.220;8.782;2022-07-18T11:51:56;12.50;;;6.03;;
9518;SDS011;4797;50.220;8.782;2022-07-18T11:54:25;10.43;;;6.00;;
9518;SDS011;4797;50.220;8.782;2022-07-18T11:56:55;11.40;;;7.03;;
9518;SDS011;4797;50.220;8.782;2022-07-18T11:59:36;10.67;;;6.43;;
9518;SDS011;4797;50.220;8.782;2022-07-18T12:02:06;11.50;;;6.47;;
9518;SDS011;4797;50.220;8.782;2022-07-18T12:04:34;17.77;;;9.13;;
9518;SDS011;4797;50.220;8.782;2022-07-18T12:07:16;10.63;;;6.13;;
9518;SDS011;4797;50.220;8.782;2022-07-18T12:09:44;18.37;;;6.43;;
9518;SDS011;4797;50.220;8.782;2022-07-18T12:12:13;11.73;;;6.37;;
9518;SDS011;4797;50.220;8.782;2022-07-18T12:14:58;12.90;;;6.50;;
9518;SDS011;4797;50.220;8.782;2022-07-18T12:17:29;11.20;;;7.13;;
9518;SDS011;4797;50.220;8.782;2022-07-18T12:20:08;48.23;;;27.80;;
9518;SDS011;4797;50.220;8.782;2022-07-18T12:23:03;57.67;;;32.23;;
9518;SDS011;4797;50.220;8.782;2022-07-18T12:25:34;54.57;;;29.53;;
9518;SDS011;4797;50.220;8.782;2022-07-18T12:28:11;53.33;;;28.13;;
9518;SDS011;4797;50.220;8.782;2022-07-18T12:30:40;54.47;;;29.43;;
9518;SDS011;4797;50.220;8.782;2022-07-18T12:33:10;55.13;;;32.13;;
9518;SDS011;4797;50.220;8.782;2022-07-18T12:35:39;87.50;;;49.97;;
9518;SDS011;4797;50.220;8.782;2022-07-18T12:38:09;96.00;;;52.67;;
9518;SDS011;4797;50.220;8.782;2022-07-18T12:40:39;96.33;;;55.57;;
9518;SDS011;4797;50.220;8.782;2022-07-18T12:43:08;99.40;;;58.40;;
9518;SDS011;4797;50.220;8.782;2022-07-18T12:45:37;100.93;;;57.83;;
9518;SDS011;4797;50.220;8.782;2022-07-18T12:48:06;102.57;;;59.13;;
9518;SDS011;4797;50.220;8.782;2022-07-18T12:50:37;105.10;;;60.43;;
9518;SDS011;4797;50.220;8.782;2022-07-18T12:53:05;104.60;;;61.03;;
9518;SDS011;4797;50.220;8.782;2022-07-18T12:55:34;101.77;;;57.27;;
9518;SDS011;4797;50.220;8.782;2022-07-18T12:58:03;101.90;;;58.60;;
9518;SDS011;4797;50.220;8.782;2022-07-18T13:00:32;104.80;;;59.87;;
9518;SDS011;4797;50.220;8.782;2022-07-18T13:03:00;109.27;;;62.93;;
9518;SDS011;4797;50.220;8.782;2022-07-18T13:05:29;101.63;;;59.00;;
9518;SDS011;4797;50.220;8.782;2022-07-18T13:07:58;105.13;;;60.07;;
9518;SDS011;4797;50.220;8.782;2022-07-18T13:10:27;112.97;;;64.33;;
9518;SDS011;4797;50.220;8.782;2022-07-18T13:12:55;106.23;;;61.17;;
9518;SDS011;4797;50.220;8.782;2022-07-18T13:15:24;103.60;;;61.03;;
9518;SDS011;4797;50.220;8.782;2022-07-18T13:17:52;100.83;;;59.17;;
9518;SDS011;4797;50.220;8.782;2022-07-18T13:20:21;108.73;;;61.00;;
9518;SDS011;4797;50.220;8.782;2022-07-18T13:22:50;101.30;;;58.57;;
9518;SDS011;4797;50.220;8.782;2022-07-18T13:25:21;97.30;;;57.80;;
9518;SDS011;4797;50.220;8.782;2022-07-18T13:27:49;95.47;;;56.43;;
9518;SDS011;4797;50.220;8.782;2022-07-18T13:30:18;91.43;;;51.13;;
9518;SDS011;4797;50.220;8.782;2022-07-18T13:32:46;65.67;;;37.57;;
9518;SDS011;4797;50.220;8.782;2022-07-18T13:35:16;59.23;;;34.57;;
9518;SDS011;4797;50.220;8.782;2022-07-18T13:37:44;92.30;;;52.23;;
9518;SDS011;4797;50.220;8.782;2022-07-18T13:40:13;90.03;;;52.97;;
9518;SDS011;4797;50.220;8.782;2022-07-18T13:42:43;93.90;;;55.03;;
9518;SDS011;4797;50.220;8.782;2022-07-18T13:45:11;96.90;;;53.27;;
9518;SDS011;4797;50.220;8.782;2022-07-18T13:47:41;100.00;;;57.63;;
9518;SDS011;4797;50.220;8.782;2022-07-18T13:50:10;100.77;;;54.80;;
9518;SDS011;4797;50.220;8.782;2022-07-18T13:52:39;99.03;;;55.77;;
9518;SDS011;4797;50.220;8.782;2022-07-18T13:55:07;98.27;;;57.00;;
9518;SDS011;4797;50.220;8.782;2022-07-18T13:57:36;101.67;;;57.77;;
9518;SDS011;4797;50.220;8.782;2022-07-18T14:00:08;103.03;;;60.63;;
9518;SDS011;4797;50.220;8.782;2022-07-18T14:02:36;101.20;;;58.23;;
9518;SDS011;4797;50.220;8.782;2022-07-18T14:05:08;103.13;;;60.30;;
9518;SDS011;4797;50.220;8.782;2022-07-18T14:07:40;109.73;;;64.23;;
9518;SDS011;4797;50.220;8.782;2022-07-18T14:10:09;103.47;;;59.80;;
9518;SDS011;4797;50.220;8.782;2022-07-18T14:12:37;100.87;;;60.10;;
9518;SDS011;4797;50.220;8.782;2022-07-18T14:15:08;104.10;;;62.50;;
9518;SDS011;4797;50.220;8.782;2022-07-18T14:17:36;107.90;;;64.37;;
9518;SDS011;4797;50.220;8.782;2022-07-18T14:20:05;103.03;;;60.87;;
9518;SDS011;4797;50.220;8.782;2022-07-18T14:22:34;96.13;;;56.97;;
9518;SDS011;4797;50.220;8.782;2022-07-18T14:25:02;57.83;;;32.83;;
9518;SDS011;4797;50.220;8.782;2022-07-18T14:27:31;53.13;;;30.27;;
9518;SDS011;4797;50.220;8.782;2022-07-18T14:29:59;52.53;;;29.93;;
9518;SDS011;4797;50.220;8.782;2022-07-18T14:32:29;34.43;;;21.50;;
9518;SDS011;4797;50.220;8.782;2022-07-18T14:34:57;15.63;;;8.67;;
9518;SDS011;4797;50.220;8.782;2022-07-18T14:37:25;19.77;;;9.07;;
9518;SDS011;4797;50.220;8.782;2022-07-18T14:39:54;9.70;;;5.87;;
9518;SDS011;4797;50.220;8.782;2022-07-18T14:42:22;8.00;;;4.80;;
9518;SDS011;4797;50.220;8.782;2022-07-18T14:44:51;4.40;;;3.90;;
9518;SDS011;4797;50.220;8.782;2022-07-18T14:47:19;6.57;;;4.63;;
9518;SDS011;4797;50.220;8.782;2022-07-18T14:49:49;6.37;;;4.67;;
9518;SDS011;4797;50.220;8.782;2022-07-18T14:52:18;6.03;;;5.13;;
9518;SDS011;4797;50.220;8.782;2022-07-18T14:54:46;12.37;;;5.90;;
9518;SDS011;4797;50.220;8.782;2022-07-18T14:57:15;16.13;;;9.33;;
9518;SDS011;4797;50.220;8.782;2022-07-18T14:59:44;11.03;;;6.63;;
9518;SDS011;4797;50.220;8.782;2022-07-18T15:02:12;14.33;;;7.27;;
9518;SDS011;4797;50.220;8.782;2022-07-18T15:04:41;11.07;;;6.80;;
9518;SDS011;4797;50.220;8.782;2022-07-18T15:07:11;15.63;;;8.83;;
9518;SDS011;4797;50.220;8.782;2022-07-18T15:09:39;8.97;;;4.93;;
9518;SDS011;4797;50.220;8.782;2022-07-18T15:12:08;3.90;;;3.60;;
9518;SDS011;4797;50.220;8.782;2022-07-18T15:14:36;2.20;;;1.90;;
9518;SDS011;4797;50.220;8.782;2022-07-18T15:17:04;1.93;;;1.50;;
9518;SDS011;4797;50.220;8.782;2022-07-18T15:19:33;3.67;;;2.10;;
9518;SDS011;4797;50.220;8.782;2022-07-18T15:22:01;3.73;;;2.00;;
9518;SDS011;4797;50.220;8.782;2022-07-18T15:24:32;1.57;;;1.47;;
9518;SDS011;4797;50.220;8.782;2022-07-18T15:27:01;4.90;;;1.67;;
9518;SDS011;4797;50.220;8.782;2022-07-18T15:29:32;6.37;;;1.53;;
9518;SDS011;4797;50.220;8.782;2022-07-18T15:32:01;4.80;;;1.47;;
9518;SDS011;4797;50.220;8.782;2022-07-18T15:34:34;5.77;;;1.70;;
9518;SDS011;4797;50.220;8.782;2022-07-18T15:37:03;1.80;;;1.70;;
9518;SDS011;4797;50.220;8.782;2022-07-18T15:39:32;1.80;;;1.70;;